Time;durP1;ratioP1;P1;durP2;ratioP2;P2;SDS_P1;SDS_P2;PMS_P1;PMS_P2;Temp;Humidity;BMP_temperature;BMP_pressure;BME280_temperature;BME280_humidity;BME280_pressure;Samples;Min_cycle;Max_cycle;Signal;HPM_P1;HPM_P2
2022/04/16 00:00:55;;;;;;;23.65;19.20;;;;;;;6.54;92.52;99123.09;4993127;28;20112;-59
2022/04/16 00:03:21;;;;;;;21.55;18.15;;;;;;;6.64;93.00;99129.81;4993229;28;20053;-59
2022/04/16 00:05:51;;;;;;;21.67;18.70;;;;;;;6.48;92.54;99090.59;4993201;28;20022;-59
2022/04/16 00:08:18;;;;;;;21.15;18.73;;;;;;;6.63;92.98;99125.53;4993497;28;20026;-59
2022/04/16 00:10:44;;;;;;;18.92;16.80;;;;;;;6.56;92.98;99129.06;4993414;28;20036;-59
2022/04/16 00:13:11;;;;;;;21.15;18.35;;;;;;;6.46;93.70;99130.09;4991442;28;20039;-59
2022/04/16 00:15:38;;;;;;;18.42;16.42;;;;;;;6.29;93.63;99117.44;4990842;28;20038;-59
2022/04/16 00:18:03;;;;;;;23.40;20.20;;;;;;;6.42;93.97;99128.41;4995880;28;20037;-59
2022/04/16 00:20:31;;;;;;;22.30;19.70;;;;;;;6.47;94.15;99126.63;4988749;28;20018;-59
2022/04/16 00:22:57;;;;;;;23.63;20.85;;;;;;;6.42;94.46;99121.53;4998851;28;20525;-59
2022/04/16 00:25:23;;;;;;;23.92;20.85;;;;;;;6.52;94.32;99124.84;4993092;28;20027;-60
2022/04/16 00:27:49;;;;;;;24.13;19.52;;;;;;;6.62;94.09;99125.56;4992744;28;20030;-59
2022/04/16 00:30:17;;;;;;;24.95;20.33;;;;;;;6.49;94.18;99127.47;4992902;28;20391;-58
2022/04/16 00:32:44;;;;;;;20.20;18.10;;;;;;;6.39;93.75;99130.16;4992899;28;20085;-59
2022/04/16 00:35:10;;;;;;;21.42;19.23;;;;;;;6.46;94.13;99120.63;4991406;28;20033;-59
2022/04/16 00:37:36;;;;;;;19.80;17.52;;;;;;;6.32;94.13;99133.66;5007509;28;20116;-59
2022/04/16 00:40:01;;;;;;;21.00;17.35;;;;;;;6.23;94.64;99123.53;4993050;28;20043;-58
2022/04/16 00:42:41;;;;;;;22.10;17.67;;;;;;;6.33;94.43;99129.41;4993291;28;20073;-59
2022/04/16 00:45:07;;;;;;;18.15;16.02;;;;;;;6.26;94.02;99127.78;4993192;28;20038;-61
2022/04/16 00:47:33;;;;;;;18.05;16.02;;;;;;;6.38;94.38;99128.47;4992810;28;20030;-60
2022/04/16 00:49:59;;;;;;;17.52;15.60;;;;;;;6.21;94.12;99125.25;4992805;28;20045;-60
2022/04/16 00:52:25;;;;;;;19.60;17.60;;;;;;;6.30;94.28;99114.84;4993059;28;20038;-59
2022/04/16 00:54:54;;;;;;;17.30;15.60;;;;;;;5.88;94.57;99058.78;4992447;28;20033;-59
2022/04/16 00:57:21;;;;;;;16.95;14.75;;;;;;;6.26;94.19;99126.03;5005986;28;20037;-60
2022/04/16 00:59:47;;;;;;;14.52;13.02;;;;;;;6.29;93.13;99128.56;5012334;28;20061;-60
2022/04/16 01:02:12;;;;;;;11.25;10.07;;;;;;;6.07;93.77;99127.13;4999964;28;20054;-60
2022/04/16 01:04:38;;;;;;;12.85;11.55;;;;;;;6.20;93.65;99133.84;4974652;28;20042;-60
2022/04/16 01:09:51;;;;;;;7.30;6.50;;;;;;;5.96;91.92;99140.09;4992663;28;20547;-59
2022/04/16 01:12:17;;;;;;;6.85;6.15;;;;;;;5.92;92.33;99136.69;4992738;28;20045;-59
2022/04/16 01:14:43;;;;;;;7.07;6.20;;;;;;;5.96;92.04;99135.81;4992422;28;20113;-59
2022/04/16 01:17:09;;;;;;;6.05;5.47;;;;;;;5.97;91.14;99134.97;4992230;28;20748;-59
2022/04/16 01:19:40;;;;;;;6.05;5.45;;;;;;;6.01;91.28;99144.34;5007484;28;20118;-59
2022/04/16 01:22:06;;;;;;;5.05;4.57;;;;;;;5.77;91.27;99139.44;4982707;28;20037;-59
2022/04/16 01:24:34;;;;;;;5.95;4.63;;;;;;;5.78;90.87;99141.16;4995748;28;20026;-59
2022/04/16 01:27:00;;;;;;;4.70;4.18;;;;;;;5.70;91.67;99143.78;5003503;28;20030;-59
2022/04/16 01:29:26;;;;;;;6.80;4.60;;;;;;;5.67;91.50;99146.38;4995793;28;20033;-60
2022/04/16 01:31:53;;;;;;;4.53;3.95;;;;;;;5.59;90.95;99143.91;4995643;28;20030;-59
2022/04/16 01:34:19;;;;;;;4.30;3.90;;;;;;;5.47;90.67;99141.44;4995936;28;20038;-60
2022/04/16 01:36:46;;;;;;;4.40;4.00;;;;;;;5.66;90.96;99153.25;4995507;28;20101;-61
2022/04/16 01:39:12;;;;;;;3.97;3.60;;;;;;;5.32;90.05;99156.13;4997078;28;20034;-60
2022/04/16 01:41:37;;;;;;;3.38;3.13;;;;;;;5.10;90.15;99158.03;4995578;28;20026;-60
2022/04/16 01:44:03;;;;;;;4.65;3.55;;;;;;;5.27;89.53;99155.34;4995472;28;20034;-60
2022/04/16 01:46:29;;;;;;;4.10;3.22;;;;;;;5.23;89.22;99158.81;4995876;28;20026;-61
2022/04/16 01:48:55;;;;;;;3.50;3.20;;;;;;;5.16;89.21;99159.72;5014846;28;20389;-59
2022/04/16 01:51:22;;;;;;;3.30;2.97;;;;;;;4.94;89.34;99172.69;4983179;28;20089;-60
2022/04/16 01:53:48;;;;;;;3.80;3.20;;;;;;;4.50;91.27;99178.94;5006093;28;20021;-60
2022/04/16 01:56:14;;;;;;;3.30;3.00;;;;;;;4.66;90.36;99165.19;5007448;28;20489;-59
2022/04/16 01:58:41;;;;;;;4.28;3.20;;;;;;;4.88;90.29;99166.75;5011524;28;20022;-59
2022/04/16 02:01:10;;;;;;;3.55;3.22;;;;;;;4.66;89.68;99167.75;4999581;28;20515;-59
2022/04/16 02:03:37;;;;;;;3.30;3.00;;;;;;;4.62;90.10;99160.94;5012245;28;20049;-59
2022/04/16 02:06:05;;;;;;;3.00;2.75;;;;;;;4.44;90.34;99176.41;5013203;28;20054;-59
2022/04/16 02:08:31;;;;;;;2.78;2.58;;;;;;;4.30;90.45;99164.53;4995397;28;20028;-60
2022/04/16 02:10:56;;;;;;;2.85;2.60;;;;;;;4.12;90.26;99172.28;5006458;28;20019;-60
2022/04/16 02:13:22;;;;;;;2.55;2.33;;;;;;;4.29;90.25;99180.75;4973952;28;20030;-60
2022/04/16 02:15:48;;;;;;;2.88;2.58;;;;;;;4.38;90.16;99182.41;4993726;28;20085;-59
2022/04/16 02:18:13;;;;;;;2.80;2.60;;;;;;;4.40;89.90;99185.81;4985072;28;20033;-60
2022/04/16 02:20:43;;;;;;;2.55;2.35;;;;;;;4.02;90.15;99185.97;4995378;28;20069;-60
2022/04/16 02:23:10;;;;;;;2.17;1.98;;;;;;;3.74;90.38;99191.16;4996237;28;20035;-60
2022/04/16 02:25:36;;;;;;;2.42;2.22;;;;;;;3.93;91.42;99176.59;4995362;28;20029;-60
2022/04/16 02:28:01;;;;;;;3.92;2.50;;;;;;;4.03;90.60;99185.94;5014866;28;20034;-59
2022/04/16 02:30:30;;;;;;;2.92;2.30;;;;;;;3.82;90.59;99184.31;5014750;28;20100;-59
2022/04/16 02:32:56;;;;;;;4.13;2.30;;;;;;;4.21;90.00;99190.16;5002036;28;20046;-59
2022/04/16 02:35:23;;;;;;;2.60;2.40;;;;;;;4.38;90.56;99196.97;4995013;28;20026;-59
2022/04/16 02:37:49;;;;;;;2.45;2.25;;;;;;;4.22;89.40;99206.38;5009240;28;20088;-59
2022/04/16 02:40:15;;;;;;;2.80;1.80;;;;;;;4.12;89.81;99195.34;4994992;28;20041;-60
2022/04/16 02:42:43;;;;;;;2.08;1.98;;;;;;;3.81;89.41;99195.41;4994634;28;20069;-60
2022/04/16 02:47:55;;;;;;;2.15;1.40;;;;;;;3.68;88.48;99201.41;4994641;28;20038;-60
2022/04/16 02:50:24;;;;;;;1.80;1.70;;;;;;;3.47;89.56;99212.53;4992278;28;20106;-59
2022/04/16 02:52:50;;;;;;;1.80;1.70;;;;;;;3.80;89.14;99214.19;4978042;28;20023;-59
2022/04/16 02:55:16;;;;;;;2.20;2.00;;;;;;;3.64;89.61;99218.47;4994618;28;20022;-59
2022/04/16 02:57:45;;;;;;;3.35;1.30;;;;;;;3.39;88.51;99202.28;5002512;28;20033;-59
2022/04/16 03:00:13;;;;;;;1.50;1.40;;;;;;;3.27;89.73;99213.38;5012254;28;20054;-59
2022/04/16 03:02:40;;;;;;;1.17;1.13;;;;;;;2.98;89.78;99216.75;4996986;28;20031;-59
2022/04/16 03:05:08;;;;;;;1.65;1.42;;;;;;;3.25;90.91;99222.75;4979140;28;20033;-59
2022/04/16 03:07:35;;;;;;;1.58;1.40;;;;;;;3.19;90.32;99217.63;4986911;28;20387;-59
2022/04/16 03:10:02;;;;;;;1.63;1.52;;;;;;;3.35;89.72;99226.16;4974784;28;20117;-59
2022/04/16 03:12:39;;;;;;;1.63;1.52;;;;;;;3.16;89.99;99227.88;5005271;28;20080;-59
2022/04/16 03:17:50;;;;;;;1.58;1.40;;;;;;;3.20;89.75;99225.31;5002220;28;20038;-59
2022/04/16 03:20:15;;;;;;;1.88;1.13;;;;;;;3.14;89.70;99227.03;5004388;28;20086;-59
2022/04/16 03:22:42;;;;;;;1.35;1.25;;;;;;;3.01;88.95;99242.34;4991209;28;20383;-59
2022/04/16 03:25:09;;;;;;;1.60;1.50;;;;;;;3.10;89.59;99228.72;4976918;28;20482;-58
2022/04/16 03:27:35;;;;;;;0.90;0.90;;;;;;;3.02;89.50;99227.84;4993350;28;20038;-58
2022/04/16 03:30:01;;;;;;;1.00;1.00;;;;;;;2.84;89.14;99251.69;5005379;28;20036;-58
2022/04/16 03:32:26;;;;;;;1.25;1.20;;;;;;;2.67;89.91;99242.25;5005447;28;20022;-58
2022/04/16 03:34:52;;;;;;;1.30;1.20;;;;;;;2.81;90.07;99241.44;4993717;28;20111;-58
2022/04/16 03:37:17;;;;;;;1.33;1.20;;;;;;;2.84;90.78;99239.75;4998466;28;20395;-58
2022/04/16 03:39:44;;;;;;;1.33;1.23;;;;;;;2.74;90.17;99259.31;4996132;28;20023;-58
2022/04/16 03:42:10;;;;;;;1.08;1.05;;;;;;;2.93;90.42;99255.09;4993683;28;20065;-58
2022/04/16 03:44:37;;;;;;;1.20;1.10;;;;;;;2.74;89.96;99254.19;5001311;28;20451;-59
2022/04/16 03:47:03;;;;;;;0.77;0.77;;;;;;;2.54;90.33;99246.47;4993554;28;20399;-59
2022/04/16 03:49:29;;;;;;;1.70;0.98;;;;;;;2.63;90.13;99263.53;4993639;28;20037;-59
2022/04/16 03:51:54;;;;;;;1.25;1.15;;;;;;;2.73;90.24;99260.16;4990387;28;20463;-58
2022/04/16 04:00:00;;;;;;;1.10;1.00;;;;;;;2.68;90.53;99263.53;5000343;28;20030;-58
2022/04/16 04:02:33;;;;;;;1.70;1.10;;;;;;;2.69;90.63;99255.88;4993122;28;20065;-58
2022/04/16 04:04:59;;;;;;;0.93;0.93;;;;;;;2.74;90.72;99258.47;4992691;28;20034;-58
2022/04/16 04:07:25;;;;;;;0.90;0.90;;;;;;;2.64;90.07;99249.91;4998261;28;20033;-58
2022/04/16 04:09:51;;;;;;;0.75;0.75;;;;;;;2.70;89.95;99251.63;5003379;28;20080;-59
2022/04/16 04:12:17;;;;;;;1.10;1.00;;;;;;;2.71;89.91;99258.47;5003758;28;20501;-59
2022/04/16 04:14:45;;;;;;;0.80;0.80;;;;;;;2.59;90.43;99259.25;5003537;28;20022;-60
2022/04/16 04:17:12;;;;;;;0.90;0.90;;;;;;;2.75;90.18;99271.25;4992135;28;20054;-59
2022/04/16 04:19:40;;;;;;;0.70;0.70;;;;;;;2.76;89.25;99257.63;4975189;28;20030;-59
2022/04/16 04:22:07;;;;;;;1.40;0.95;;;;;;;2.82;89.82;99256.81;4994656;28;20037;-59
2022/04/16 04:24:33;;;;;;;1.05;0.95;;;;;;;3.03;89.91;99265.38;4996692;28;20383;-59
2022/04/16 04:27:00;;;;;;;1.10;0.95;;;;;;;2.97;89.65;99265.34;4980822;28;20027;-59
2022/04/16 04:29:30;;;;;;;1.27;1.00;;;;;;;2.49;89.79;99214.91;4973098;28;20054;-58
2022/04/16 04:31:56;;;;;;;1.08;0.95;;;;;;;2.86;89.38;99284.06;4976675;28;20470;-59
2022/04/16 04:34:23;;;;;;;0.80;0.80;;;;;;;2.81;89.46;99290.88;4992688;28;20065;-58
2022/04/16 04:36:48;;;;;;;0.90;0.90;;;;;;;2.94;89.27;99284.94;4994567;28;20030;-59
2022/04/16 04:39:14;;;;;;;1.33;1.00;;;;;;;2.93;88.97;99290.91;5012041;28;20048;-58
2022/04/16 04:41:42;;;;;;;0.90;0.90;;;;;;;2.79;88.96;99296.84;4978479;28;20033;-58
2022/04/16 04:44:12;;;;;;;0.90;0.85;;;;;;;2.59;89.58;99297.59;4977122;28;20056;-59
2022/04/16 04:46:39;;;;;;;0.90;0.90;;;;;;;2.73;89.58;99293.38;4992818;28;20103;-59
2022/04/16 04:49:07;;;;;;;0.90;0.90;;;;;;;2.84;89.83;99301.13;4974687;28;20041;-59
2022/04/16 04:51:36;;;;;;;1.00;1.00;;;;;;;3.02;89.70;99300.34;4992434;28;20076;-59
2022/04/16 04:54:06;;;;;;;0.90;0.90;;;;;;;2.89;89.00;99313.91;4992120;28;20492;-59
2022/04/16 04:56:32;;;;;;;1.38;1.00;;;;;;;3.02;88.45;99322.47;4997739;28;20034;-58
2022/04/16 04:58:58;;;;;;;1.05;1.00;;;;;;;2.75;88.44;99313.84;5001397;28;20028;-58
2022/04/16 05:01:23;;;;;;;1.00;1.00;;;;;;;2.82;88.91;99323.28;5000496;28;20403;-59
2022/04/16 05:03:49;;;;;;;1.33;1.23;;;;;;;3.13;88.88;99322.53;4999300;28;20185;-59
2022/04/16 05:06:15;;;;;;;1.10;1.00;;;;;;;2.86;87.99;99342.03;5006316;28;20033;-59
2022/04/16 05:08:41;;;;;;;1.20;1.10;;;;;;;3.12;88.37;99334.44;5004021;28;20046;-58
2022/04/16 05:11:06;;;;;;;1.50;0.98;;;;;;;2.91;88.32;99327.56;5003844;28;20498;-59
2022/04/16 05:13:32;;;;;;;1.38;1.27;;;;;;;2.85;88.55;99338.63;5011264;28;20471;-59
2022/04/16 05:15:57;;;;;;;1.15;1.05;;;;;;;2.69;88.05;99342.78;4997123;28;20034;-59
2022/04/16 05:18:23;;;;;;;0.90;0.90;;;;;;;2.58;89.09;99337.66;5002659;28;20026;-59
2022/04/16 05:20:49;;;;;;;1.20;1.10;;;;;;;2.69;88.90;99336.84;4998214;28;20031;-59
2022/04/16 05:23:15;;;;;;;1.33;1.20;;;;;;;2.84;88.78;99331.81;4998082;28;20038;-59
2022/04/16 05:25:40;;;;;;;1.40;1.30;;;;;;;3.11;88.91;99331.03;5003377;28;20022;-58
2022/04/16 05:28:06;;;;;;;1.10;1.10;;;;;;;3.05;88.35;99330.16;4998956;28;20026;-59
2022/04/16 05:30:38;;;;;;;1.38;1.27;;;;;;;3.16;88.38;99336.16;5000678;28;20106;-59
2022/04/16 05:33:16;;;;;;;3.58;1.50;;;;;;;3.02;87.43;99330.16;4991387;28;20026;-58
2022/04/16 05:35:42;;;;;;;1.08;1.08;;;;;;;3.05;88.61;99335.28;4996690;28;20515;-58
2022/04/16 05:38:08;;;;;;;0.98;0.98;;;;;;;2.73;88.55;99329.19;5011734;28;20116;-59
2022/04/16 05:40:34;;;;;;;0.95;0.95;;;;;;;2.64;88.67;99334.28;4995292;28;20472;-59
2022/04/16 05:42:59;;;;;;;2.22;1.17;;;;;;;3.01;89.82;99339.53;4995663;28;20536;-60
2022/04/16 05:45:25;;;;;;;1.27;1.17;;;;;;;3.16;88.55;99333.59;4995369;28;20042;-59
2022/04/16 05:47:50;;;;;;;1.15;1.05;;;;;;;3.08;87.57;99341.28;5004327;28;20034;-59
2022/04/16 05:50:16;;;;;;;1.30;1.20;;;;;;;3.00;88.46;99336.97;4986700;28;20463;-59
2022/04/16 05:52:41;;;;;;;1.00;1.00;;;;;;;2.84;87.99;99331.81;4995225;28;20026;-58
2022/04/16 05:55:08;;;;;;;1.27;1.17;;;;;;;3.05;88.38;99325.03;4995123;28;20041;-58
2022/04/16 05:57:34;;;;;;;1.40;1.30;;;;;;;3.00;87.75;99334.44;4995207;28;20018;-58
2022/04/16 05:59:59;;;;;;;1.40;1.30;;;;;;;2.97;88.06;99329.31;5013485;28;20484;-59
2022/04/16 06:02:25;;;;;;;1.20;1.10;;;;;;;3.01;88.25;99326.75;5003727;28;20051;-59
2022/04/16 06:04:51;;;;;;;1.00;1.00;;;;;;;3.19;88.15;99314.84;4977007;28;20043;-59
2022/04/16 06:07:16;;;;;;;1.50;1.40;;;;;;;3.28;86.94;99328.53;5011312;28;20018;-59
2022/04/16 06:09:42;;;;;;;1.30;1.20;;;;;;;3.31;87.50;99339.59;4998711;28;20038;-58
2022/04/16 06:12:09;;;;;;;1.02;1.02;;;;;;;2.90;88.02;99334.38;4969516;28;20400;-58
2022/04/16 06:14:35;;;;;;;1.30;1.20;;;;;;;3.09;87.96;99334.44;4971683;28;20022;-59
2022/04/16 06:17:01;;;;;;;1.42;1.33;;;;;;;3.16;88.20;99337.88;4990214;28;20041;-59
2022/04/16 06:19:26;;;;;;;1.40;1.30;;;;;;;3.00;87.46;99348.06;5003955;28;20081;-59
2022/04/16 06:21:52;;;;;;;1.30;1.20;;;;;;;3.02;87.14;99356.59;4976112;28;20048;-59
2022/04/16 06:24:18;;;;;;;1.30;1.20;;;;;;;3.21;87.60;99365.19;4997128;28;20045;-59
2022/04/16 06:26:45;;;;;;;0.93;0.93;;;;;;;3.01;87.94;99371.94;4992034;28;20066;-59
2022/04/16 06:29:11;;;;;;;1.15;1.10;;;;;;;3.00;87.46;99354.88;4991633;28;20072;-59
2022/04/16 06:31:37;;;;;;;1.77;1.45;;;;;;;3.00;88.09;99353.16;4953319;28;20046;-60
2022/04/16 06:34:03;;;;;;;1.17;1.08;;;;;;;2.72;87.70;99354.75;4990348;28;20026;-59
2022/04/16 06:36:29;;;;;;;1.60;1.50;;;;;;;3.08;87.47;99350.66;4989524;28;20487;-59
2022/04/16 06:38:54;;;;;;;1.50;1.40;;;;;;;3.06;86.87;99365.97;4989308;28;20041;-60
2022/04/16 06:41:20;;;;;;;1.48;1.33;;;;;;;3.10;87.69;99359.19;4994202;28;20037;-59
2022/04/16 06:43:45;;;;;;;1.20;1.10;;;;;;;2.98;86.73;99360.00;5009318;28;20026;-60
2022/04/16 06:46:12;;;;;;;2.10;1.10;;;;;;;2.79;87.65;99363.31;5001020;28;20026;-60
2022/04/16 06:48:38;;;;;;;1.63;1.52;;;;;;;2.98;88.09;99366.78;5009044;28;20030;-59
2022/04/16 06:51:04;;;;;;;1.40;1.30;;;;;;;2.92;87.79;99365.94;4999409;28;20033;-59
2022/04/16 06:53:30;;;;;;;1.42;1.30;;;;;;;3.21;88.15;99364.34;4989423;28;20547;-60
2022/04/16 06:56:00;;;;;;;1.63;1.48;;;;;;;3.18;86.67;99354.06;4989530;28;20100;-59
2022/04/16 06:58:28;;;;;;;3.90;1.50;;;;;;;3.21;86.77;99360.06;4989527;28;20065;-59
2022/04/16 07:00:53;;;;;;;1.80;1.25;;;;;;;3.39;86.51;99374.63;4989063;28;20812;-61
2022/04/16 07:03:19;;;;;;;2.17;1.13;;;;;;;3.04;86.42;99370.25;5001350;28;20042;-63
2022/04/16 07:05:44;;;;;;;1.30;1.20;;;;;;;3.17;86.16;99373.69;5001597;28;20589;-58
2022/04/16 07:08:10;;;;;;;1.50;1.40;;;;;;;3.04;87.03;99366.84;5007061;28;20034;-57
2022/04/16 07:10:35;;;;;;;1.42;1.33;;;;;;;2.86;86.93;99354.81;4993746;28;20081;-59
2022/04/16 07:13:01;;;;;;;1.80;1.20;;;;;;;2.81;87.30;99372.72;5010938;28;20049;-59
2022/04/16 07:15:26;;;;;;;1.50;1.40;;;;;;;3.13;87.02;99368.56;5006546;28;20032;-59
2022/04/16 07:17:52;;;;;;;1.30;1.20;;;;;;;3.14;86.18;99371.13;5005412;28;20365;-59
2022/04/16 07:20:17;;;;;;;2.05;1.05;;;;;;;2.70;87.00;99382.88;5008639;28;20495;-58
2022/04/16 07:22:43;;;;;;;1.60;1.42;;;;;;;3.01;87.49;99379.63;5001571;28;20029;-59
2022/04/16 07:25:09;;;;;;;1.58;1.48;;;;;;;3.32;86.72;99390.81;4993681;28;20365;-58
2022/04/16 07:27:36;;;;;;;1.38;1.23;;;;;;;3.07;85.63;99384.75;4993417;28;20093;-58
2022/04/16 07:30:02;;;;;;;1.98;1.58;;;;;;;3.19;85.92;99407.84;5003022;28;20030;-59
2022/04/16 07:32:29;;;;;;;3.72;2.72;;;;;;;3.46;85.47;99408.75;4978951;28;20079;-58
2022/04/16 07:34:54;;;;;;;1.70;1.60;;;;;;;3.13;84.54;99418.03;5012616;28;20474;-58
2022/04/16 07:37:20;;;;;;;2.55;1.83;;;;;;;3.34;85.39;99418.97;5003984;28;20022;-59
2022/04/16 07:39:46;;;;;;;1.48;1.30;;;;;;;3.23;84.88;99430.00;4992769;28;20093;-58
2022/04/16 07:42:11;;;;;;;1.50;1.40;;;;;;;3.12;84.77;99416.31;4992643;28;20066;-58
2022/04/16 07:44:37;;;;;;;1.38;1.25;;;;;;;3.19;84.35;99435.09;5006574;28;20038;-59
2022/04/16 07:47:02;;;;;;;3.03;1.50;;;;;;;3.30;84.14;99442.84;5005422;28;20030;-59
2022/04/16 07:49:28;;;;;;;1.40;1.30;;;;;;;3.16;83.78;99435.94;4992587;28;20464;-59
2022/04/16 07:51:54;;;;;;;1.52;1.23;;;;;;;3.09;83.88;99436.75;4992083;28;20502;-59
2022/04/16 07:54:19;;;;;;;1.67;1.58;;;;;;;3.24;84.92;99452.19;4975328;28;20142;-60
2022/04/16 07:56:45;;;;;;;1.60;1.50;;;;;;;3.25;85.09;99453.91;4994042;28;20038;-59
2022/04/16 07:59:12;;;;;;;1.77;1.42;;;;;;;3.08;84.80;99456.38;4992857;28;20026;-60
2022/04/16 08:01:38;;;;;;;1.67;1.35;;;;;;;3.08;83.98;99458.09;4992592;28;20058;-59
2022/04/16 08:04:04;;;;;;;3.47;1.98;;;;;;;3.25;85.41;99450.47;5003407;28;20042;-59
2022/04/16 08:06:29;;;;;;;1.85;1.50;;;;;;;3.22;85.34;99469.25;4999645;28;20030;-59
2022/04/16 08:09:00;;;;;;;1.98;1.83;;;;;;;3.32;85.25;99476.97;4992472;28;20053;-60
2022/04/16 08:11:30;;;;;;;3.00;1.80;;;;;;;3.31;84.99;99476.13;4996987;28;20030;-60
2022/04/16 08:13:56;;;;;;;1.75;1.60;;;;;;;3.30;85.12;99473.56;5003259;28;20026;-59
2022/04/16 08:16:22;;;;;;;2.58;1.73;;;;;;;3.42;85.01;99468.47;5006240;28;20506;-61
2022/04/16 08:18:48;;;;;;;1.40;1.30;;;;;;;3.38;84.57;99474.44;5010197;28;20026;-58
2022/04/16 08:21:14;;;;;;;1.85;1.50;;;;;;;3.24;85.35;99466.69;4994024;28;20023;-60
2022/04/16 08:23:44;;;;;;;1.73;1.63;;;;;;;3.17;85.12;99477.75;5000292;28;20030;-58
2022/04/16 08:26:11;;;;;;;4.13;2.50;;;;;;;3.44;85.72;99475.31;5012152;28;20026;-59
2022/04/16 08:28:36;;;;;;;1.92;1.73;;;;;;;3.33;85.96;99482.09;5011825;28;20040;-59
2022/04/16 08:31:03;;;;;;;1.77;1.67;;;;;;;3.43;85.42;99476.19;4997084;28;20030;-59
2022/04/16 08:33:28;;;;;;;2.17;1.40;;;;;;;3.46;85.02;99480.44;4994230;28;20080;-59
2022/04/16 08:35:54;;;;;;;1.35;1.25;;;;;;;3.36;84.66;99479.53;4997994;28;20031;-59
2022/04/16 08:38:19;;;;;;;1.98;1.77;;;;;;;3.48;85.40;99488.13;4963065;28;20444;-59
2022/04/16 08:40:47;;;;;;;1.95;1.60;;;;;;;3.34;85.06;99483.81;4996377;28;20041;-58
2022/04/16 08:43:13;;;;;;;2.58;2.00;;;;;;;3.53;85.17;99487.28;4996523;28;20488;-58
2022/04/16 08:45:40;;;;;;;1.80;1.40;;;;;;;3.28;85.60;99464.16;5003521;28;20041;-58
2022/04/16 08:48:06;;;;;;;3.58;2.13;;;;;;;3.50;84.82;99491.56;5015895;28;20030;-58
2022/04/16 08:50:33;;;;;;;4.70;1.80;;;;;;;3.51;86.11;99496.69;4992698;28;20033;-58
2022/04/16 08:52:59;;;;;;;2.22;1.92;;;;;;;3.37;85.09;99498.31;4996446;28;20023;-57
2022/04/16 08:55:25;;;;;;;3.83;1.88;;;;;;;3.35;85.48;99500.00;5016106;28;20034;-57
2022/04/16 08:57:53;;;;;;;3.90;2.30;;;;;;;3.40;84.63;99493.22;4999916;28;20041;-58
2022/04/16 09:00:19;;;;;;;1.70;1.60;;;;;;;3.32;85.09;99503.44;5006937;28;20037;-58
2022/04/16 09:02:56;;;;;;;2.15;1.70;;;;;;;3.38;85.42;99512.84;4990208;28;20041;-58
2022/04/16 09:05:23;;;;;;;2.05;1.85;;;;;;;3.40;85.73;99511.13;4995954;28;20502;-57
2022/04/16 09:07:51;;;;;;;2.25;1.95;;;;;;;3.50;85.28;99497.53;4996103;28;20029;-57
2022/04/16 09:10:17;;;;;;;2.17;1.70;;;;;;;3.45;85.53;99506.91;5014867;28;20026;-57
2022/04/16 09:12:47;;;;;;;1.98;1.77;;;;;;;3.61;85.43;99503.53;5015566;28;20034;-58
2022/04/16 09:15:13;;;;;;;3.00;1.80;;;;;;;3.57;84.19;99514.63;5015134;28;20026;-58
2022/04/16 09:17:40;;;;;;;4.97;2.20;;;;;;;3.52;84.44;99503.53;5002815;28;20054;-58
2022/04/16 09:20:11;;;;;;;2.10;1.90;;;;;;;3.77;84.72;99516.41;5012803;28;20030;-58
2022/04/16 09:22:38;;;;;;;2.47;2.15;;;;;;;3.68;83.98;99516.34;4995698;28;20101;-57
2022/04/16 09:25:15;;;;;;;2.20;1.85;;;;;;;3.69;83.82;99518.06;4997247;28;20043;-57
2022/04/16 09:27:52;;;;;;;2.15;1.90;;;;;;;3.17;84.42;99453.00;4995594;28;20054;-57
2022/04/16 09:30:31;;;;;;;3.95;1.92;;;;;;;3.17;84.64;99493.09;4989034;28;20114;-57
2022/04/16 09:32:58;;;;;;;2.20;2.00;;;;;;;3.47;85.27;99518.00;4999479;28;20027;-58
2022/04/16 09:35:33;;;;;;;2.15;2.00;;;;;;;3.51;84.45;99517.16;5007777;28;20437;-58
2022/04/16 09:38:00;;;;;;;2.30;1.80;;;;;;;3.15;84.61;99461.53;4974930;28;20058;-58
2022/04/16 09:40:31;;;;;;;2.45;1.90;;;;;;;3.48;83.87;99529.94;5015123;28;20033;-58
2022/04/16 09:43:01;;;;;;;4.00;2.17;;;;;;;3.70;84.76;99522.34;4981107;28;20037;-58
2022/04/16 09:45:27;;;;;;;2.58;2.15;;;;;;;3.90;84.08;99528.38;5001673;28;20386;-58
2022/04/16 09:47:53;;;;;;;2.53;2.03;;;;;;;3.72;83.19;99536.00;4986228;28;20476;-58
2022/04/16 09:50:21;;;;;;;3.70;2.90;;;;;;;3.59;83.55;99533.41;4979773;28;20109;-59
2022/04/16 09:53:06;;;;;;;1.63;1.52;;;;;;;3.61;83.87;99521.47;4995246;28;20026;-59
2022/04/16 09:55:32;;;;;;;2.47;1.77;;;;;;;3.76;82.98;99547.97;4975960;28;20383;-59
2022/04/16 09:58:01;;;;;;;2.75;2.30;;;;;;;3.79;83.85;99542.88;4992142;28;20042;-57
2022/04/16 10:00:27;;;;;;;3.00;2.00;;;;;;;3.59;83.82;99546.22;4993203;28;20074;-58
2022/04/16 10:02:54;;;;;;;1.83;1.65;;;;;;;3.63;82.67;99553.06;4994999;28;20042;-58
2022/04/16 10:05:20;;;;;;;2.25;1.88;;;;;;;3.91;82.91;99542.91;4997727;28;20030;-59
2022/04/16 10:07:47;;;;;;;2.83;2.10;;;;;;;3.51;82.51;99553.00;5014411;28;20022;-57
2022/04/16 10:10:24;;;;;;;2.17;1.92;;;;;;;3.61;83.26;99551.34;5014411;28;20034;-58
2022/04/16 10:13:04;;;;;;;3.22;1.83;;;;;;;3.03;83.17;99516.88;5006329;28;20391;-58
2022/04/16 10:15:42;;;;;;;3.20;1.60;;;;;;;3.31;83.22;99499.16;5007029;28;20030;-59
2022/04/16 10:18:10;;;;;;;3.58;1.98;;;;;;;2.93;83.45;99504.91;4977028;28;20030;-58
2022/04/16 10:20:36;;;;;;;2.67;2.00;;;;;;;3.36;83.21;99583.63;5003553;28;20043;-58
2022/04/16 10:23:07;;;;;;;4.35;1.80;;;;;;;3.37;82.90;99573.41;4996630;28;20044;-57
2022/04/16 10:25:40;;;;;;;1.80;1.70;;;;;;;3.00;82.64;99516.03;4994823;28;20038;-58
2022/04/16 10:28:08;;;;;;;3.78;1.90;;;;;;;3.56;82.79;99570.94;5011391;28;20022;-58
2022/04/16 10:30:42;;;;;;;1.80;1.70;;;;;;;3.40;82.24;99559.78;5013975;28;20034;-58
2022/04/16 10:33:24;;;;;;;2.85;1.90;;;;;;;3.59;81.84;99574.38;5002332;28;20023;-58
2022/04/16 10:35:54;;;;;;;2.53;1.90;;;;;;;3.65;82.32;99571.00;4994353;28;20034;-58
2022/04/16 10:38:31;;;;;;;2.08;1.88;;;;;;;3.38;82.43;99589.63;4994346;28;20026;-58
2022/04/16 10:41:20;;;;;;;2.35;1.80;;;;;;;3.38;82.25;99584.50;4993955;28;20053;-59
2022/04/16 10:43:59;;;;;;;1.75;1.65;;;;;;;3.19;81.87;99535.78;4994362;28;20038;-58
2022/04/16 10:46:39;;;;;;;1.88;1.77;;;;;;;3.38;81.62;99576.84;4990596;28;20495;-57
2022/04/16 10:49:07;;;;;;;2.10;1.90;;;;;;;3.60;82.59;99613.63;4995510;28;20030;-58
2022/04/16 10:51:36;;;;;;;2.28;1.92;;;;;;;3.47;81.70;99592.22;4976563;28;20055;-59
2022/04/16 10:54:13;;;;;;;1.95;1.73;;;;;;;3.11;81.66;99553.63;4976517;28;20026;-58
2022/04/16 10:56:43;;;;;;;2.22;2.03;;;;;;;3.56;82.97;99597.41;4981382;28;20403;-58
2022/04/16 10:59:10;;;;;;;1.73;1.60;;;;;;;3.48;81.11;99604.19;5003192;28;20029;-59
2022/04/16 11:01:37;;;;;;;3.22;1.85;;;;;;;3.44;79.92;99600.75;4974625;28;20042;-60
2022/04/16 11:04:13;;;;;;;2.85;1.75;;;;;;;3.42;80.46;99606.69;4990401;28;20118;-58
2022/04/16 11:06:44;;;;;;;2.45;2.20;;;;;;;3.24;80.20;99549.44;4976199;28;20033;-58
2022/04/16 11:09:15;;;;;;;2.78;2.25;;;;;;;3.49;80.82;99617.84;4993265;28;20386;-59
2022/04/16 11:11:41;;;;;;;3.20;2.00;;;;;;;3.52;80.69;99618.72;4993559;28;20118;-58
2022/04/16 11:14:10;;;;;;;1.88;1.70;;;;;;;3.37;81.27;99601.56;5012770;28;20495;-59
2022/04/16 11:16:48;;;;;;;2.00;1.80;;;;;;;3.69;81.13;99613.69;4993690;28;20038;-58
2022/04/16 11:19:18;;;;;;;3.10;1.65;;;;;;;3.64;80.50;99625.63;5007147;28;20030;-58
2022/04/16 11:21:44;;;;;;;2.83;1.95;;;;;;;3.74;80.81;99613.72;5005820;28;20064;-59
2022/04/16 11:24:10;;;;;;;1.92;1.70;;;;;;;3.50;79.62;99617.84;5005789;28;20104;-59
2022/04/16 11:34:57;;;;;;;1.60;1.40;;;;;;;3.35;79.42;99626.28;4993411;28;20037;-58
2022/04/16 11:37:23;;;;;;;1.40;1.30;;;;;;;3.34;79.44;99634.81;4992914;28;20482;-57
2022/04/16 11:40:17;;;;;;;1.45;1.35;;;;;;;3.47;80.30;99640.88;5007900;28;20114;-59
2022/04/16 11:42:45;;;;;;;1.60;1.50;;;;;;;3.62;79.57;99647.81;4988109;28;20092;-59
2022/04/16 11:45:11;;;;;;;3.72;1.55;;;;;;;3.61;78.62;99653.78;5003713;28;20097;-59
2022/04/16 11:47:37;;;;;;;1.55;1.45;;;;;;;3.51;78.09;99655.41;4997469;28;20422;-59
2022/04/16 11:50:06;;;;;;;1.65;1.50;;;;;;;3.38;78.73;99651.06;5008726;28;20116;-58
2022/04/16 11:52:33;;;;;;;1.55;1.40;;;;;;;3.53;78.03;99671.63;4973862;28;20030;-59
2022/04/16 11:55:06;;;;;;;1.63;1.25;;;;;;;3.62;78.58;99670.84;4992779;28;20034;-59
2022/04/16 11:57:36;;;;;;;2.10;1.80;;;;;;;3.45;78.55;99665.63;5004512;28;20029;-59
2022/04/16 12:00:07;;;;;;;1.55;1.35;;;;;;;2.92;79.49;99603.81;5004742;28;20122;-58
2022/04/16 12:02:37;;;;;;;1.52;1.42;;;;;;;3.56;79.81;99674.22;4996572;28;20136;-60